Lumberton, NC

6:45 PM EDT on July 31, 2014 (GMT -0400)
Lumberton Municipal (KLBT) Elev 125 ft | 34.61 °N, 79.06 °W | Change Station

Current weather conditions updated 51 minutes ago

Light Rain
Light Rain
79 °F
Feels Like 79 °F
N
7
Wind Variable Wind from SSE

Tomorrow is forecast to be Cooler than today. Scattered thunderstorms possible.

Today
High -- | Low -- °F
--% Chance of Precip.
Yesterday
High -- | Low -- °F
Precip. -- in
6:25 AM 8:19 PM
Waxing Crescent, 21% visible
Pressure 30.09 in
Visibility 9.0 miles
Clouds Scattered Clouds 12000 ft
Dew Point 69 °F
Humidity 72%
Rainfall 0.00 in
Snow Depth Not available.
UV 2 out of 12
Pollen 4.10 out of 12
Ozone Good
PM2.5 Good
Flu Activity Not available.
METAR KLBT 312154Z AUTO 15006KT 9SM -RA SCT120 26/21 A3009 RMK AO2 RAB52 SLP188 P0000 T02610206

More Conditions Fewer Conditions

Pressure 30.09 in
Visibility 9.0 miles
Clouds Scattered Clouds 12000 ft
Dew Point 69 °F
Humidity 72%
Rainfall 0.00 in
Snow Depth Not available.
UV 2 out of 12
Pollen 4.10 out of 12
Ozone Good
PM2.5 Good
Flu Activity Not available.
METAR KLBT 312154Z AUTO 15006KT 9SM -RA SCT120 26/21 A3009 RMK AO2 RAB52 SLP188 P0000 T02610206

More Conditions Fewer Conditions

10-Day Weather Forecast

Almanac

Astronomy

Jul. 31, 2014 Rise Set
Actual Time 6:25 AM EDT 8:19 PM EDT
Civil Twilight 5:57 AM EDT 8:46 PM EDT
Nautical Twilight 5:24 AM EDT 9:20 PM EDT
Astronomical Twilight 4:48 AM EDT 9:55 PM EDT
Moon 10:38 AM EDT 10:45 PM EDT
Length of Visible Light 14h 48m
Length of Day
13h 53m
Tomorrow will be 1m 37s shorter.
Waxing Crescent, 21% of the Moon is Illuminated
Today
Waxing Crescent
Aug 3
First Quarter
Aug 10
Full
Aug 17
Last Quarter
Aug 25
New

Today's Extremes

State Highs State Lows

Community

WunderPhotos

Upload Photos

1,739,474 photos uploaded!

Nearby

Air Quality

  Air Quality AQ Index Pollutant
Yesterday Good
PM2.5
Yesterday Good
OZONE
Current Good
PM2.5
Current Good
OZONE
Thursday Moderate
PM2.5
Thursday Good
OZONE
Friday Good
PM2.5
Friday Good
OZONE
Saturday Good
PM2.5
Saturday Good
OZONE
Sunday Good
PM2.5
Sunday Good
OZONE

Snow Depth

Station Depth Elevation
No new snow has been reported.

Earthquake Activity

City Distance Mag. Time & Date
No recent earthquake activity has been reported nearby.
Minimum magnitude displayed is 2.5.

Coastal Water Temperatures

Place Temperature
No Stations Reporting

Nearby Weather Stations

Station Location Temp. Heat Index Dew Point Humidity Wind Precip. Elev Updated Type
RAWS LUMBERTON NC, Lumberton, NC 80 °F 83 °F 69 °F 70% SSE  at  4 mph 0.00 in / hr 120 ft 5:40 PM EDT MADIS
Fayetteville Road, Lumberton, NC 80.1 °F 84 °F 73 °F 78% East  at  0.0 mph 0.01 in / hr 126 ft 6:45 PM EDT Rapid Fire
Saint Pauls, St. Pauls, NC 76.3 °F 77 °F 71 °F 84% ESE  at  2.0 mph 0.00 in / hr 190 ft 6:33 PM EDT Normal
CCSkywatch, Whiteville, NC 78.0 °F 80 °F 69 °F 74% ENE  at  0.0 mph 0.00 in / hr 91 ft 6:45 PM EDT Rapid Fire

Show More Stations Show Fewer Stations